createdAt,value
2023-11-19T00:00:54.199Z,63.14
2023-11-19T00:03:34.897Z,63.41
2023-11-19T00:06:05.943Z,63.73
2023-11-19T00:08:33.281Z,63.60
2023-11-19T00:11:00.453Z,62.98
2023-11-19T00:13:32.098Z,62.68
2023-11-19T00:15:59.140Z,62.71
2023-11-19T00:18:29.919Z,63.39
2023-11-19T00:20:57.554Z,63.87
2023-11-19T00:23:24.613Z,63.89
2023-11-19T00:25:51.937Z,64.00
2023-11-19T00:28:19.061Z,64.35
2023-11-19T00:30:47.429Z,64.13
2023-11-19T00:33:14.469Z,65.01
2023-11-19T00:35:41.491Z,65.01
2023-11-19T00:38:08.512Z,64.08
2023-11-19T00:40:39.763Z,64.04
2023-11-19T00:43:06.902Z,64.12
2023-11-19T00:45:33.961Z,64.03
2023-11-19T00:48:01.104Z,64.39
2023-11-19T00:50:28.242Z,64.71
2023-11-19T00:53:00.709Z,64.14
2023-11-19T00:55:27.983Z,63.87
2023-11-19T00:57:55.181Z,64.55
2023-11-19T01:00:25.829Z,64.36
2023-11-19T01:02:53.119Z,65.15
2023-11-19T01:05:23.933Z,65.03
2023-11-19T01:07:51.572Z,65.28
2023-11-19T01:10:20.325Z,65.03
2023-11-19T01:12:48.209Z,65.30
2023-11-19T01:15:16.399Z,64.86
2023-11-19T01:20:18.682Z,65.09
2023-11-19T01:22:46.320Z,64.71
2023-11-19T01:25:13.524Z,64.16
2023-11-19T01:27:40.596Z,64.49
2023-11-19T01:30:10.985Z,64.40
2023-11-19T01:32:38.184Z,64.30
2023-11-19T01:35:05.902Z,64.75
2023-11-19T01:37:33.650Z,65.65
2023-11-19T01:40:00.926Z,65.24
2023-11-19T01:42:31.178Z,65.27
2023-11-19T01:45:06.209Z,65.22
2023-11-19T01:47:36.200Z,64.84
2023-11-19T01:50:08.001Z,66.04
2023-11-19T01:52:42.814Z,65.52
2023-11-19T01:55:12.400Z,64.79
2023-11-19T01:57:42.376Z,65.42
2023-11-19T02:00:13.494Z,65.53
2023-11-19T02:02:49.699Z,65.80
2023-11-19T02:05:18.010Z,65.46
2023-11-19T02:07:45.397Z,65.68
2023-11-19T02:10:15.929Z,65.10
2023-11-19T02:12:44.647Z,66.28
2023-11-19T02:15:13.547Z,67.04
2023-11-19T02:17:40.697Z,66.75
2023-11-19T02:20:10.625Z,66.95
2023-11-19T02:22:45.228Z,67.16
2023-11-19T02:25:25.651Z,67.49
2023-11-19T02:28:04.483Z,66.95
2023-11-19T02:30:31.524Z,67.05
2023-11-19T02:33:02.806Z,67.24
2023-11-19T02:35:36.727Z,67.14
2023-11-19T02:38:05.594Z,67.09
2023-11-19T02:40:39.686Z,66.66
2023-11-19T02:43:07.020Z,66.71
2023-11-19T02:45:38.041Z,67.57
2023-11-19T02:48:08.298Z,67.28
2023-11-19T02:50:35.294Z,67.06
2023-11-19T02:53:02.579Z,66.94
2023-11-19T02:55:36.829Z,67.21
2023-11-19T02:58:09.393Z,67.60
2023-11-19T03:00:47.452Z,68.11
2023-11-19T03:03:22.217Z,68.06
2023-11-19T03:05:49.797Z,67.70
2023-11-19T03:10:52.640Z,67.36
2023-11-19T03:13:19.857Z,67.40
2023-11-19T03:15:49.885Z,67.30
2023-11-19T03:18:16.898Z,66.81
2023-11-19T03:20:43.995Z,67.58
2023-11-19T03:23:11.487Z,67.30
2023-11-19T03:25:45.149Z,67.04
2023-11-19T03:28:12.552Z,66.54
2023-11-19T03:30:39.690Z,66.07
2023-11-19T03:33:06.824Z,65.73
2023-11-19T03:35:34.625Z,65.41
2023-11-19T03:38:02.572Z,65.75
2023-11-19T03:40:31.142Z,66.45
2023-11-19T03:43:00.070Z,66.89
2023-11-19T03:45:27.372Z,67.72
2023-11-19T03:47:54.269Z,67.37
2023-11-19T03:50:24.486Z,67.14
2023-11-19T03:52:51.530Z,67.15
2023-11-19T03:55:18.817Z,67.78
2023-11-19T03:57:50.087Z,67.92
2023-11-19T04:00:22.499Z,67.56
2023-11-19T04:02:49.689Z,67.78
2023-11-19T04:05:20.328Z,67.50
2023-11-19T04:07:48.268Z,67.28
2023-11-19T04:10:18.036Z,67.43
2023-11-19T04:12:45.060Z,67.63
2023-11-19T04:15:13.264Z,68.24
2023-11-19T04:17:40.266Z,68.52
2023-11-19T04:20:18.459Z,68.43
2023-11-19T04:22:48.513Z,68.33
2023-11-19T04:25:16.711Z,68.02
2023-11-19T04:27:43.835Z,68.17
2023-11-19T04:30:12.673Z,68.60
2023-11-19T04:32:39.787Z,68.71
2023-11-19T04:35:08.248Z,68.71
2023-11-19T04:37:40.551Z,68.64
2023-11-19T04:40:11.379Z,68.22
2023-11-19T04:42:49.214Z,68.78
2023-11-19T04:45:21.592Z,68.43
2023-11-19T04:47:48.731Z,68.64
2023-11-19T04:50:17.162Z,68.47
2023-11-19T04:52:46.538Z,68.71
2023-11-19T04:55:15.727Z,68.76
2023-11-19T04:57:42.911Z,68.26
2023-11-19T05:02:43.008Z,68.64
2023-11-19T05:05:10.801Z,69.12
2023-11-19T05:07:37.897Z,68.90
2023-11-19T05:10:08.644Z,68.69
2023-11-19T05:12:38.455Z,69.02
2023-11-19T05:15:05.978Z,69.15
2023-11-19T05:17:33.005Z,69.37
2023-11-19T05:19:59.959Z,69.16
2023-11-19T05:22:31.324Z,68.70
2023-11-19T05:24:58.313Z,68.70
2023-11-19T05:27:27.747Z,69.16
2023-11-19T05:30:12.390Z,69.07
2023-11-19T05:32:39.593Z,69.77
2023-11-19T05:35:07.433Z,69.46
2023-11-19T05:37:36.370Z,69.59
2023-11-19T05:40:06.472Z,69.74
2023-11-19T05:42:36.461Z,69.32
2023-11-19T05:45:03.579Z,68.98
2023-11-19T05:47:31.947Z,68.86
2023-11-19T05:49:59.473Z,68.69
2023-11-19T05:52:26.427Z,68.84
2023-11-19T05:54:54.244Z,69.20
2023-11-19T05:57:29.551Z,69.09
2023-11-19T05:59:56.846Z,69.28
2023-11-19T06:02:23.847Z,69.38
2023-11-19T06:04:51.187Z,69.58
2023-11-19T06:07:18.458Z,69.58
2023-11-19T06:09:46.901Z,69.67
2023-11-19T06:12:15.496Z,69.18
2023-11-19T06:14:42.743Z,69.17
2023-11-19T06:17:12.156Z,69.48
2023-11-19T06:19:41.766Z,69.25
2023-11-19T06:22:08.785Z,69.32
2023-11-19T06:24:37.785Z,69.52
2023-11-19T06:27:08.436Z,69.28
2023-11-19T06:29:37.792Z,69.42
2023-11-19T06:32:14.813Z,69.61
2023-11-19T06:34:43.521Z,70.29
2023-11-19T06:37:10.744Z,69.98
2023-11-19T06:39:41.748Z,69.73
2023-11-19T06:42:08.801Z,70.28
2023-11-19T06:44:36.469Z,70.65
2023-11-19T06:47:03.655Z,70.45
2023-11-19T06:49:30.660Z,70.13
2023-11-19T06:51:58.196Z,70.11
2023-11-19T06:54:25.519Z,70.22
2023-11-19T06:56:53.860Z,70.81
2023-11-19T06:59:35.186Z,71.75
2023-11-19T07:02:02.283Z,71.18
2023-11-19T07:04:29.437Z,70.40
2023-11-19T07:06:56.697Z,70.55
2023-11-19T07:09:24.550Z,70.29
2023-11-19T07:11:55.171Z,70.47
2023-11-19T07:14:28.415Z,70.39
2023-11-19T07:16:57.666Z,70.16
2023-11-19T07:19:27.923Z,70.77
2023-11-19T07:21:56.112Z,70.99
2023-11-19T07:24:24.907Z,70.30
2023-11-19T07:26:52.481Z,70.30
2023-11-19T07:31:53.045Z,70.38
2023-11-19T07:34:21.355Z,70.35
2023-11-19T07:36:54.602Z,70.00
2023-11-19T07:39:22.499Z,70.09
2023-11-19T07:41:49.485Z,69.86
2023-11-19T07:44:16.531Z,69.58
2023-11-19T07:46:43.869Z,70.10
2023-11-19T07:49:11.737Z,69.88
2023-11-19T07:51:38.636Z,69.48
2023-11-19T07:54:05.874Z,69.33
2023-11-19T07:56:36.033Z,69.81
2023-11-19T07:59:08.517Z,69.96
2023-11-19T08:01:36.744Z,70.56
2023-11-19T08:04:09.231Z,70.12
2023-11-19T08:06:36.754Z,69.30
2023-11-19T08:09:06.778Z,68.72
2023-11-19T08:11:35.072Z,68.82
2023-11-19T08:14:05.522Z,68.17
2023-11-19T08:16:37.076Z,67.57
2023-11-19T08:19:04.685Z,67.31
2023-11-19T08:21:31.600Z,69.05
2023-11-19T08:24:00.239Z,67.76
2023-11-19T08:26:27.439Z,66.63
2023-11-19T08:28:56.986Z,66.14
2023-11-19T08:31:24.475Z,65.41
2023-11-19T08:33:51.387Z,66.05
2023-11-19T08:36:18.782Z,64.88
2023-11-19T08:38:46.471Z,64.25
2023-11-19T08:41:17.675Z,64.17
2023-11-19T08:43:46.106Z,63.87
2023-11-19T08:46:15.969Z,64.12
2023-11-19T08:48:42.968Z,62.78
2023-11-19T08:51:10.025Z,61.35
2023-11-19T08:53:37.825Z,58.62
2023-11-19T08:56:05.138Z,57.09
2023-11-19T08:58:32.579Z,55.54
2023-11-19T09:01:01.329Z,55.74
2023-11-19T09:03:29.711Z,54.98
2023-11-19T09:05:57.148Z,54.41
2023-11-19T09:08:24.158Z,54.32
2023-11-19T09:10:50.996Z,53.67
2023-11-19T09:13:20.361Z,52.27
2023-11-19T09:15:53.178Z,52.26
2023-11-19T09:18:20.260Z,50.50
2023-11-19T09:20:51.675Z,47.31
2023-11-19T09:23:18.619Z,46.31
2023-11-19T09:25:53.049Z,47.70
2023-11-19T09:28:20.055Z,53.27
2023-11-19T09:30:48.604Z,45.86
2023-11-19T09:33:23.212Z,49.22
2023-11-19T09:35:52.331Z,47.12
2023-11-19T09:38:20.781Z,44.10
2023-11-19T09:40:52.848Z,43.21
2023-11-19T09:43:22.240Z,42.94
2023-11-19T09:45:56.086Z,44.37
2023-11-19T09:48:34.678Z,46.44
2023-11-19T09:51:03.225Z,42.33
2023-11-19T09:53:32.239Z,42.79
2023-11-19T09:56:04.409Z,42.46
2023-11-19T09:58:34.463Z,43.78
2023-11-19T10:03:39.399Z,44.32
2023-11-19T10:06:15.565Z,43.70
2023-11-19T10:08:44.722Z,44.02
2023-11-19T10:11:14.769Z,46.24
2023-11-19T10:13:46.394Z,45.21
2023-11-19T10:16:16.758Z,46.07
2023-11-19T10:18:53.879Z,45.81
2023-11-19T10:21:20.760Z,46.67
2023-11-19T10:24:01.728Z,46.38
2023-11-19T10:26:30.552Z,44.79
2023-11-19T10:28:58.261Z,46.98
2023-11-19T10:31:26.716Z,44.58
2023-11-19T10:33:58.005Z,43.49
2023-11-19T10:36:39.933Z,43.29
2023-11-19T10:39:08.095Z,44.21
2023-11-19T10:41:35.273Z,43.59
2023-11-19T10:44:04.658Z,42.78
2023-11-19T10:46:42.306Z,43.11
2023-11-19T10:49:17.163Z,45.30
2023-11-19T10:51:47.836Z,45.07
2023-11-19T10:54:20.120Z,44.32
2023-11-19T10:57:01.950Z,43.98
2023-11-19T10:59:39.350Z,45.23
2023-11-19T11:02:15.967Z,44.37
2023-11-19T11:04:44.778Z,43.19
2023-11-19T11:07:11.945Z,43.76
2023-11-19T11:09:40.369Z,43.71
2023-11-19T11:12:08.810Z,45.21
2023-11-19T11:14:39.119Z,43.16
2023-11-19T11:17:11.648Z,42.21
2023-11-19T11:19:40.918Z,41.29
2023-11-19T11:22:09.932Z,41.22
2023-11-19T11:25:05.106Z,43.11
2023-11-19T11:28:18.530Z,44.67
2023-11-19T11:31:03.595Z,40.93
2023-11-19T11:33:34.087Z,38.31
2023-11-19T11:36:20.690Z,39.53
2023-11-19T11:38:56.916Z,39.37
2023-11-19T11:41:29.795Z,40.17
2023-11-19T11:43:57.977Z,41.38
2023-11-19T11:46:38.896Z,41.86
2023-11-19T11:49:06.903Z,42.65
2023-11-19T11:51:46.667Z,40.49
2023-11-19T11:54:19.973Z,42.34
2023-11-19T11:57:14.532Z,39.48
2023-11-19T11:59:47.813Z,39.53
2023-11-19T12:02:18.164Z,37.99
2023-11-19T12:04:51.560Z,37.43
2023-11-19T12:07:29.910Z,37.85
2023-11-19T12:10:21.699Z,38.57
2023-11-19T12:12:49.371Z,39.20
2023-11-19T12:15:18.619Z,42.03
2023-11-19T12:17:53.038Z,39.74
2023-11-19T12:22:57.246Z,45.18
2023-11-19T12:25:30.421Z,39.34
2023-11-19T12:28:10.335Z,38.35
2023-11-19T12:30:37.820Z,39.80
2023-11-19T12:33:12.768Z,41.21
2023-11-19T12:35:54.563Z,41.55
2023-11-19T12:38:26.637Z,40.79
2023-11-19T12:41:19.933Z,46.16
2023-11-19T12:46:30.485Z,46.56
2023-11-19T12:49:07.792Z,42.04
2023-11-19T12:51:38.241Z,41.33
2023-11-19T12:54:09.686Z,41.38
2023-11-19T12:56:46.702Z,42.11
2023-11-19T12:59:20.507Z,44.65
2023-11-19T13:02:07.547Z,44.04
2023-11-19T13:04:37.576Z,44.37
2023-11-19T13:07:10.989Z,43.46
2023-11-19T13:09:39.130Z,41.51
2023-11-19T13:12:22.172Z,44.48
2023-11-19T13:14:54.816Z,44.58
2023-11-19T13:17:22.902Z,47.54
2023-11-19T13:19:56.332Z,46.96
2023-11-19T13:22:32.064Z,50.09
2023-11-19T13:24:59.114Z,45.53
2023-11-19T13:27:30.018Z,47.02
2023-11-19T13:29:57.848Z,50.54
2023-11-19T13:32:29.089Z,48.70
2023-11-19T13:34:57.316Z,45.57
2023-11-19T13:37:27.182Z,46.81
2023-11-19T13:39:56.516Z,47.99
2023-11-19T13:42:31.444Z,49.56
2023-11-19T13:44:58.633Z,46.77
2023-11-19T13:47:25.730Z,45.70
2023-11-19T13:49:54.188Z,44.84
2023-11-19T13:52:21.314Z,45.20
2023-11-19T13:54:48.309Z,50.51
2023-11-19T13:57:15.247Z,47.42
2023-11-19T13:59:43.038Z,48.62
2023-11-19T14:02:10.197Z,48.42
2023-11-19T14:04:37.768Z,46.14
2023-11-19T14:07:04.926Z,45.64
2023-11-19T14:09:39.724Z,47.21
2023-11-19T14:12:06.775Z,47.77
2023-11-19T14:14:33.700Z,48.91
2023-11-19T14:19:31.036Z,46.53
2023-11-19T14:21:58.933Z,45.93
2023-11-19T14:24:27.299Z,49.72
2023-11-19T14:27:02.792Z,46.45
2023-11-19T14:29:34.571Z,47.66
2023-11-19T14:32:02.577Z,47.30
2023-11-19T14:34:33.722Z,48.74
2023-11-19T14:37:02.637Z,47.38
2023-11-19T14:39:37.650Z,47.34
2023-11-19T14:42:10.272Z,47.04
2023-11-19T14:44:37.745Z,46.96
2023-11-19T14:47:06.451Z,50.04
2023-11-19T14:49:34.018Z,48.40
2023-11-19T14:54:43.015Z,47.22
2023-11-19T14:57:17.510Z,48.14
2023-11-19T14:59:45.872Z,49.35
2023-11-19T15:02:20.568Z,49.16
2023-11-19T15:04:48.530Z,49.94
2023-11-19T15:07:15.628Z,49.63
2023-11-19T15:09:43.063Z,49.68
2023-11-19T15:12:10.561Z,49.60
2023-11-19T15:14:37.932Z,49.95
2023-11-19T15:17:09.471Z,49.44
2023-11-19T15:19:37.218Z,49.82
2023-11-19T15:22:14.018Z,49.74
2023-11-19T15:24:47.020Z,49.62
2023-11-19T15:27:15.301Z,49.28
2023-11-19T15:29:45.367Z,49.31
2023-11-19T15:32:18.951Z,50.05
2023-11-19T15:34:46.458Z,50.25
2023-11-19T15:37:26.350Z,50.33
2023-11-19T15:39:55.774Z,51.83
2023-11-19T15:42:29.902Z,51.90
2023-11-19T15:45:08.787Z,53.10
2023-11-19T15:47:47.789Z,53.25
2023-11-19T15:50:15.045Z,53.93
2023-11-19T15:52:42.742Z,55.04
2023-11-19T15:55:10.056Z,54.94
2023-11-19T15:57:39.046Z,54.97
2023-11-19T16:00:12.436Z,55.72
2023-11-19T16:02:49.908Z,55.58
2023-11-19T16:05:21.680Z,56.36
2023-11-19T16:08:02.367Z,56.20
2023-11-19T16:10:30.867Z,56.20
2023-11-19T16:13:03.592Z,57.95
2023-11-19T16:18:04.136Z,57.24
2023-11-19T16:20:32.800Z,57.32
2023-11-19T16:23:02.447Z,57.80
2023-11-19T16:25:29.741Z,57.92
2023-11-19T16:27:57.465Z,58.73
2023-11-19T16:30:30.796Z,58.80
2023-11-19T16:33:02.809Z,59.85
2023-11-19T16:35:35.936Z,60.29
2023-11-19T16:38:03.171Z,59.55
2023-11-19T16:40:30.273Z,58.86
2023-11-19T16:42:58.201Z,58.72
2023-11-19T16:45:29.056Z,59.15
2023-11-19T16:47:59.359Z,59.63
2023-11-19T16:50:31.434Z,60.32
2023-11-19T16:52:59.696Z,60.06
2023-11-19T16:55:27.113Z,59.79
2023-11-19T16:57:54.319Z,60.44
2023-11-19T17:03:03.865Z,60.47
2023-11-19T17:05:35.835Z,60.70
2023-11-19T17:08:03.816Z,60.58
2023-11-19T17:10:30.884Z,61.08
2023-11-19T17:13:02.445Z,61.21
2023-11-19T17:15:30.049Z,61.70
2023-11-19T17:17:57.767Z,61.79
2023-11-19T17:20:28.589Z,61.98
2023-11-19T17:22:57.328Z,62.30
2023-11-19T17:25:24.635Z,62.17
2023-11-19T17:27:52.917Z,62.18
2023-11-19T17:30:25.297Z,61.54
2023-11-19T17:32:52.448Z,61.81
2023-11-19T17:35:20.453Z,61.89
2023-11-19T17:37:56.068Z,61.80
2023-11-19T17:40:29.919Z,62.01
2023-11-19T17:42:57.088Z,62.82
2023-11-19T17:45:24.242Z,62.56
2023-11-19T17:47:51.296Z,62.46
2023-11-19T17:52:50.527Z,62.66
2023-11-19T17:55:17.581Z,62.87
2023-11-19T17:57:47.924Z,62.76
2023-11-19T18:00:16.293Z,63.17
2023-11-19T18:02:46.298Z,63.38
2023-11-19T18:05:13.796Z,63.61
2023-11-19T18:07:44.370Z,63.05
2023-11-19T18:10:12.435Z,63.16
2023-11-19T18:12:40.332Z,62.95
2023-11-19T18:15:08.746Z,63.14
2023-11-19T18:17:38.964Z,63.71
2023-11-19T18:20:09.312Z,64.03
2023-11-19T18:22:37.643Z,63.55
2023-11-19T18:25:05.916Z,64.36
2023-11-19T18:27:34.055Z,64.26
2023-11-19T18:30:01.857Z,63.98
2023-11-19T18:32:35.106Z,63.60
2023-11-19T18:35:11.110Z,62.97
2023-11-19T18:37:41.003Z,63.27
2023-11-19T18:40:15.204Z,63.55
2023-11-19T18:42:45.627Z,63.63
2023-11-19T18:45:22.800Z,63.86
2023-11-19T18:47:54.849Z,63.57
2023-11-19T18:50:26.348Z,63.76
2023-11-19T18:52:54.481Z,63.70
2023-11-19T18:55:26.067Z,63.57
2023-11-19T18:57:56.155Z,63.17
2023-11-19T19:00:27.965Z,63.34
2023-11-19T19:05:37.662Z,63.46
2023-11-19T19:08:06.456Z,63.73
2023-11-19T19:10:34.090Z,64.15
2023-11-19T19:13:04.141Z,64.27
2023-11-19T19:15:33.108Z,64.80
2023-11-19T19:18:00.809Z,64.69
2023-11-19T19:20:33.938Z,64.28
2023-11-19T19:23:02.523Z,64.77
2023-11-19T19:25:31.648Z,64.26
2023-11-19T19:28:22.685Z,64.57
2023-11-19T19:30:47.314Z,65.60
2023-11-19T19:33:17.193Z,65.69
2023-11-19T19:35:49.637Z,65.59
2023-11-19T19:38:17.162Z,65.61
2023-11-19T19:40:45.053Z,65.83
2023-11-19T19:43:13.800Z,66.19
2023-11-19T19:45:46.887Z,66.75
2023-11-19T19:48:17.747Z,65.88
2023-11-19T19:50:44.934Z,66.03
2023-11-19T19:53:13.506Z,67.20
2023-11-19T19:55:45.933Z,66.81
2023-11-19T19:58:16.812Z,66.67
2023-11-19T20:00:46.384Z,66.73
2023-11-19T20:03:15.082Z,67.19
2023-11-19T20:05:45.662Z,67.34
2023-11-19T20:08:13.861Z,67.21
2023-11-19T20:10:43.226Z,67.10
2023-11-19T20:13:14.629Z,66.84
2023-11-19T20:15:46.086Z,66.33
2023-11-19T20:18:15.551Z,66.83
2023-11-19T20:20:43.978Z,66.91
2023-11-19T20:23:11.311Z,66.62
2023-11-19T20:25:40.717Z,67.06
2023-11-19T20:28:10.668Z,67.80
2023-11-19T20:30:38.029Z,67.84
2023-11-19T20:33:05.267Z,67.53
2023-11-19T20:35:33.761Z,67.15
2023-11-19T20:38:03.416Z,67.89
2023-11-19T20:40:30.599Z,68.10
2023-11-19T20:42:57.833Z,67.83
2023-11-19T20:45:31.951Z,67.49
2023-11-19T20:47:59.889Z,67.07
2023-11-19T20:50:33.215Z,66.79
2023-11-19T20:53:03.065Z,66.47
2023-11-19T20:55:33.573Z,66.83
2023-11-19T20:58:02.911Z,66.78
2023-11-19T21:00:30.882Z,66.92
2023-11-19T21:02:59.828Z,67.10
2023-11-19T21:05:29.740Z,66.67
2023-11-19T21:07:56.796Z,67.07
2023-11-19T21:10:23.941Z,67.22
2023-11-19T21:12:51.551Z,66.74
2023-11-19T21:15:19.053Z,68.09
2023-11-19T21:17:49.331Z,68.67
2023-11-19T21:20:16.507Z,68.65
2023-11-19T21:22:44.046Z,68.09
2023-11-19T21:25:13.799Z,67.91
2023-11-19T21:27:42.786Z,68.10
2023-11-19T21:30:18.271Z,68.19
2023-11-19T21:32:45.336Z,68.28
2023-11-19T21:35:13.763Z,68.52
2023-11-19T21:37:41.167Z,68.55
2023-11-19T21:40:09.934Z,68.38
2023-11-19T21:42:37.876Z,68.04
2023-11-19T21:45:09.012Z,68.38
2023-11-19T21:47:36.644Z,69.00
2023-11-19T21:50:04.444Z,69.14
2023-11-19T21:52:38.741Z,68.36
2023-11-19T21:55:11.064Z,68.30
2023-11-19T21:57:39.457Z,68.36
2023-11-19T22:00:09.537Z,67.99
2023-11-19T22:02:37.147Z,68.73
2023-11-19T22:05:06.111Z,68.76
2023-11-19T22:07:36.580Z,68.14
2023-11-19T22:10:07.095Z,68.01
2023-11-19T22:12:34.354Z,67.81
2023-11-19T22:15:01.843Z,67.95
2023-11-19T22:17:29.124Z,67.91
2023-11-19T22:19:57.286Z,67.79
2023-11-19T22:22:24.378Z,67.88
2023-11-19T22:24:55.861Z,68.18
2023-11-19T22:27:23.017Z,68.40
2023-11-19T22:29:51.414Z,68.57
2023-11-19T22:34:51.512Z,68.45
2023-11-19T22:37:18.609Z,68.49
2023-11-19T22:39:47.769Z,67.95
2023-11-19T22:42:15.047Z,67.94
2023-11-19T22:44:42.156Z,67.99
2023-11-19T22:47:10.315Z,68.37
2023-11-19T22:49:38.381Z,68.79
2023-11-19T22:52:10.462Z,68.36
2023-11-19T22:54:37.993Z,68.31
2023-11-19T22:57:05.057Z,69.03
2023-11-19T22:59:32.715Z,69.06
2023-11-19T23:02:00.255Z,68.55
2023-11-19T23:04:27.399Z,68.27
2023-11-19T23:06:55.317Z,68.02
2023-11-19T23:09:25.586Z,67.87
2023-11-19T23:11:56.626Z,67.62
2023-11-19T23:14:24.913Z,67.40
2023-11-19T23:16:52.170Z,67.31
2023-11-19T23:19:21.609Z,67.57
2023-11-19T23:21:52.183Z,67.95
2023-11-19T23:24:19.248Z,68.29
2023-11-19T23:26:49.226Z,68.33
2023-11-19T23:29:37.688Z,67.89
2023-11-19T23:32:06.331Z,68.36
2023-11-19T23:37:05.102Z,68.68
2023-11-19T23:39:34.686Z,67.96
2023-11-19T23:42:04.934Z,68.18
2023-11-19T23:44:31.867Z,67.72
2023-11-19T23:46:58.994Z,68.10
2023-11-19T23:49:29.130Z,68.11
2023-11-19T23:51:56.253Z,68.05
2023-11-19T23:54:23.334Z,68.62
2023-11-19T23:56:53.298Z,68.40
2023-11-19T23:59:24.968Z,68.76
